Time;durP1;ratioP1;P1;durP2;ratioP2;P2;SDS_P1;SDS_P2;PMS_P1;PMS_P2;Temp;Humidity;BMP_temperature;BMP_pressure;BME280_temperature;BME280_humidity;BME280_pressure;Samples;Min_cycle;Max_cycle;Signal;HPM_P1;HPM_P2
2022/12/08 00:02:16;;;;;;;18.75;7.65;;;;;;;;;;7391622;19;20021;-72
2022/12/08 00:10:09;;;;;;;18.90;7.68;;;;;;;;;;7391497;19;20037;-71
2022/12/08 00:12:35;;;;;;;18.33;8.93;;;;;;;;;;7390808;19;20006;-71
2022/12/08 00:15:00;;;;;;;17.98;8.38;;;;;;;;;;7391216;19;20014;-72
2022/12/08 00:17:25;;;;;;;16.27;8.68;;;;;;;;;;7390388;19;20007;-72
2022/12/08 00:19:51;;;;;;;18.00;8.43;;;;;;;;;;7389612;19;20075;-72
2022/12/08 00:22:16;;;;;;;18.38;8.77;;;;;;;;;;7391044;19;20023;-72
2022/12/08 00:24:44;;;;;;;15.27;8.68;;;;;;;;;;7388896;19;19999;-71
2022/12/08 00:27:11;;;;;;;13.85;8.25;;;;;;;;;;7389785;19;20003;-72
2022/12/08 00:29:36;;;;;;;16.42;8.70;;;;;;;;;;7391565;19;20468;-70
2022/12/08 00:32:02;;;;;;;15.45;8.85;;;;;;;;;;7391133;19;19995;-71
2022/12/08 00:34:29;;;;;;;19.08;8.80;;;;;;;;;;7385187;19;20027;-71
2022/12/08 00:36:54;;;;;;;16.50;8.40;;;;;;;;;;7389642;19;20010;-71
2022/12/08 00:39:19;;;;;;;19.75;9.07;;;;;;;;;;7390590;19;19994;-72
2022/12/08 00:44:29;;;;;;;18.25;9.05;;;;;;;;;;7389912;19;20499;-72
2022/12/08 00:46:54;;;;;;;19.52;8.85;;;;;;;;;;7393992;19;19994;-72
2022/12/08 00:49:20;;;;;;;21.70;9.60;;;;;;;;;;7390175;19;19991;-73
2022/12/08 00:51:45;;;;;;;16.63;8.73;;;;;;;;;;7390276;19;19998;-72
2022/12/08 00:54:10;;;;;;;21.17;9.65;;;;;;;;;;7388271;19;20002;-71
2022/12/08 00:56:36;;;;;;;20.95;9.48;;;;;;;;;;7387419;19;20029;-72
2022/12/08 00:59:03;;;;;;;19.05;8.82;;;;;;;;;;7389900;19;19999;-72
2022/12/08 01:01:29;;;;;;;21.20;10.15;;;;;;;;;;7388930;19;20004;-71
2022/12/08 01:03:54;;;;;;;19.83;9.88;;;;;;;;;;7389350;19;20445;-71
2022/12/08 01:06:19;;;;;;;18.55;9.63;;;;;;;;;;7391530;19;20139;-72
2022/12/08 01:08:45;;;;;;;23.90;10.15;;;;;;;;;;7397469;19;20598;-71
2022/12/08 01:11:18;;;;;;;18.52;10.05;;;;;;;;;;7397116;19;19994;-71
2022/12/08 01:13:44;;;;;;;15.55;9.32;;;;;;;;;;7395472;19;20074;-71
2022/12/08 01:16:18;;;;;;;21.25;9.57;;;;;;;;;;7396569;19;20006;-71
2022/12/08 01:18:43;;;;;;;18.45;9.13;;;;;;;;;;7397193;19;20007;-71
2022/12/08 01:21:09;;;;;;;21.63;9.80;;;;;;;;;;7394959;19;19999;-71
2022/12/08 01:23:34;;;;;;;20.92;10.00;;;;;;;;;;7396284;19;19991;-72
2022/12/08 01:26:04;;;;;;;21.95;9.93;;;;;;;;;;7397466;19;19995;-72
2022/12/08 01:28:30;;;;;;;21.13;9.98;;;;;;;;;;7395410;19;20036;-72
2022/12/08 01:30:57;;;;;;;22.40;10.15;;;;;;;;;;7396760;19;19999;-72
2022/12/08 01:33:23;;;;;;;20.15;9.30;;;;;;;;;;7396224;19;20527;-72
2022/12/08 01:35:48;;;;;;;19.88;10.43;;;;;;;;;;7394625;19;20002;-71
2022/12/08 01:38:14;;;;;;;25.75;10.75;;;;;;;;;;7397063;19;19995;-70
2022/12/08 01:40:39;;;;;;;23.00;11.30;;;;;;;;;;7394695;19;20012;-71
2022/12/08 01:43:04;;;;;;;22.00;10.27;;;;;;;;;;7396101;19;20030;-72
2022/12/08 01:45:31;;;;;;;23.23;10.35;;;;;;;;;;7395991;19;19999;-70
2022/12/08 01:48:05;;;;;;;20.55;10.18;;;;;;;;;;7392243;19;20366;-71
2022/12/08 01:50:31;;;;;;;17.92;9.27;;;;;;;;;;7396116;19;19995;-71
2022/12/08 01:53:13;;;;;;;19.60;10.02;;;;;;;;;;7395255;19;20001;-70
2022/12/08 01:55:45;;;;;;;22.38;9.38;;;;;;;;;;7394173;19;20503;-71
2022/12/08 01:58:21;;;;;;;22.98;10.80;;;;;;;;;;7392947;19;19994;-71
2022/12/08 02:00:48;;;;;;;24.52;10.48;;;;;;;;;;7394348;19;19998;-71
2022/12/08 02:03:20;;;;;;;21.23;10.23;;;;;;;;;;7395046;19;20027;-73
2022/12/08 02:05:46;;;;;;;24.63;10.90;;;;;;;;;;7394200;19;20318;-72
2022/12/08 02:08:12;;;;;;;20.30;10.45;;;;;;;;;;7391921;19;20013;-72
2022/12/08 02:10:40;;;;;;;25.35;11.20;;;;;;;;;;7395188;19;19998;-72
2022/12/08 02:13:09;;;;;;;23.58;10.00;;;;;;;;;;7394791;19;20002;-72
2022/12/08 02:16:08;;;;;;;20.80;9.95;;;;;;;;;;7395183;19;20064;-72
2022/12/08 02:18:37;;;;;;;21.25;10.43;;;;;;;;;;7393085;19;20322;-72
2022/12/08 02:21:10;;;;;;;21.17;9.80;;;;;;;;;;7393996;19;19999;-72
2022/12/08 02:24:00;;;;;;;23.40;9.77;;;;;;;;;;7394435;19;20066;-72
2022/12/08 02:26:40;;;;;;;25.27;10.55;;;;;;;;;;7394049;19;20464;-72
2022/12/08 02:29:31;;;;;;;21.33;10.73;;;;;;;;;;7394869;19;19998;-73
2022/12/08 02:32:08;;;;;;;22.37;10.50;;;;;;;;;;7398656;19;20047;-72
2022/12/08 02:34:41;;;;;;;20.40;10.15;;;;;;;;;;7393741;19;20496;-72
2022/12/08 02:37:24;;;;;;;21.75;10.88;;;;;;;;;;7392664;19;20050;-72
2022/12/08 02:39:55;;;;;;;29.45;10.57;;;;;;;;;;7390062;19;20001;-72
2022/12/08 02:42:31;;;;;;;;;;;;;;;;;;7399494;19;20486;-72
2022/12/08 02:45:05;;;;;;;22.48;10.05;;;;;;;;;;7393985;19;19914;-72
2022/12/08 02:47:32;;;;;;;23.48;10.18;;;;;;;;;;7393321;19;19991;-72
2022/12/08 02:49:57;;;;;;;21.98;10.80;;;;;;;;;;7393751;19;19991;-72
2022/12/08 02:52:23;;;;;;;28.35;10.68;;;;;;;;;;7393865;19;20062;-72
2022/12/08 02:55:02;;;;;;;20.92;9.45;;;;;;;;;;7393023;19;20007;-71
2022/12/08 02:57:52;;;;;;;24.88;10.25;;;;;;;;;;7397316;19;20022;-71
2022/12/08 03:00:20;;;;;;;21.58;9.93;;;;;;;;;;7388808;19;20003;-71
2022/12/08 03:03:01;;;;;;;21.08;9.77;;;;;;;;;;7387515;19;20009;-71
2022/12/08 03:05:44;;;;;;;20.10;9.70;;;;;;;;;;7393489;19;20037;-71
2022/12/08 03:08:33;;;;;;;22.40;10.95;;;;;;;;;;7391424;19;20002;-71
2022/12/08 03:11:07;;;;;;;26.38;10.05;;;;;;;;;;7393283;19;19994;-71
2022/12/08 03:13:45;;;;;;;22.85;9.38;;;;;;;;;;7392598;19;20479;-72
2022/12/08 03:16:16;;;;;;;17.85;9.63;;;;;;;;;;7392994;19;19999;-71
2022/12/08 03:18:44;;;;;;;;;;;;;;;;;;7393607;19;20100;-72
2022/12/08 03:21:11;;;;;;;19.35;9.35;;;;;;;;;;7391724;19;20392;-71
2022/12/08 03:23:38;;;;;;;18.88;8.85;;;;;;;;;;7392025;19;20036;-72
2022/12/08 03:26:17;;;;;;;20.63;9.73;;;;;;;;;;7393158;19;19998;-72
2022/12/08 03:28:43;;;;;;;23.17;9.52;;;;;;;;;;7390791;19;20002;-72
2022/12/08 03:31:11;;;;;;;17.65;8.90;;;;;;;;;;7392545;19;20110;-72
2022/12/08 03:33:40;;;;;;;21.20;9.93;;;;;;;;;;7391875;19;19998;-72
2022/12/08 03:36:07;;;;;;;22.02;9.35;;;;;;;;;;7389240;19;20026;-72
2022/12/08 03:38:38;;;;;;;23.73;9.73;;;;;;;;;;7392222;19;19995;-72
2022/12/08 03:41:19;;;;;;;22.27;10.18;;;;;;;;;;7391230;19;20122;-72
2022/12/08 03:43:52;;;;;;;20.83;10.27;;;;;;;;;;7391950;19;20003;-72
2022/12/08 03:46:22;;;;;;;23.98;9.88;;;;;;;;;;7391888;19;20006;-72
2022/12/08 03:48:48;;;;;;;19.38;9.65;;;;;;;;;;7391899;19;20423;-72
2022/12/08 03:51:14;;;;;;;18.88;8.88;;;;;;;;;;7390621;19;19995;-72
2022/12/08 03:53:40;;;;;;;23.10;10.13;;;;;;;;;;7391210;19;20020;-72
2022/12/08 03:56:14;;;;;;;20.75;9.23;;;;;;;;;;7391421;19;19994;-72
2022/12/08 03:58:40;;;;;;;24.02;9.57;;;;;;;;;;7390417;19;20058;-72
2022/12/08 04:01:05;;;;;;;19.45;9.10;;;;;;;;;;7390985;19;20021;-72
2022/12/08 04:03:31;;;;;;;18.15;8.80;;;;;;;;;;7390708;19;20515;-72
2022/12/08 04:05:56;;;;;;;20.58;9.25;;;;;;;;;;7391516;19;20018;-72
2022/12/08 04:08:21;;;;;;;23.58;9.52;;;;;;;;;;7391575;19;19994;-72
2022/12/08 04:10:47;;;;;;;21.40;9.73;;;;;;;;;;7391536;19;20475;-72
2022/12/08 04:13:12;;;;;;;19.55;9.20;;;;;;;;;;7390599;19;19995;-71
2022/12/08 04:15:37;;;;;;;21.80;10.07;;;;;;;;;;7391357;19;20005;-72
2022/12/08 04:18:03;;;;;;;20.75;9.55;;;;;;;;;;7389686;19;20360;-72
2022/12/08 04:20:28;;;;;;;21.17;9.27;;;;;;;;;;7390367;19;19990;-71
2022/12/08 04:22:53;;;;;;;20.38;8.60;;;;;;;;;;7390607;19;20002;-72
2022/12/08 04:25:19;;;;;;;19.27;8.63;;;;;;;;;;7386835;19;20515;-72
2022/12/08 04:27:44;;;;;;;18.95;8.52;;;;;;;;;;7389588;19;19998;-73
2022/12/08 04:30:10;;;;;;;19.15;8.25;;;;;;;;;;7390928;19;20050;-71
2022/12/08 04:32:35;;;;;;;20.33;9.23;;;;;;;;;;7389243;19;20013;-71
2022/12/08 04:35:00;;;;;;;17.60;8.80;;;;;;;;;;7390688;19;19987;-72
2022/12/08 04:37:27;;;;;;;17.25;7.90;;;;;;;;;;7385370;19;20003;-72
2022/12/08 04:39:52;;;;;;;19.02;9.05;;;;;;;;;;7388972;19;20074;-72
2022/12/08 04:42:18;;;;;;;16.80;8.52;;;;;;;;;;7397074;19;20415;-72
2022/12/08 04:44:43;;;;;;;19.08;8.63;;;;;;;;;;7397898;19;19999;-72
2022/12/08 04:47:08;;;;;;;18.45;8.73;;;;;;;;;;7396416;19;20002;-72
2022/12/08 04:49:34;;;;;;;17.30;8.80;;;;;;;;;;7400260;19;20456;-72
2022/12/08 04:51:59;;;;;;;17.33;8.50;;;;;;;;;;7396245;19;20007;-71
2022/12/08 04:54:25;;;;;;;19.50;8.43;;;;;;;;;;7397162;19;19998;-72
2022/12/08 04:56:51;;;;;;;16.58;8.27;;;;;;;;;;7396608;19;20384;-72
2022/12/08 04:59:16;;;;;;;16.33;8.15;;;;;;;;;;7397824;19;20018;-72
2022/12/08 05:01:41;;;;;;;16.60;8.25;;;;;;;;;;7395178;19;20007;-72
2022/12/08 05:04:07;;;;;;;20.25;9.02;;;;;;;;;;7395266;19;20006;-72
2022/12/08 05:06:32;;;;;;;15.10;8.07;;;;;;;;;;7303039;19;20495;-72
2022/12/08 05:08:57;;;;;;;18.17;7.82;;;;;;;;;;7394475;19;20010;-73
2022/12/08 05:11:25;;;;;;;17.55;7.75;;;;;;;;;;7399562;19;20027;-71
2022/12/08 05:13:51;;;;;;;16.90;7.97;;;;;;;;;;7397017;19;19999;-72
2022/12/08 05:16:16;;;;;;;19.90;8.23;;;;;;;;;;7399316;19;20032;-72
2022/12/08 05:18:45;;;;;;;16.05;8.25;;;;;;;;;;7399873;19;20062;-73
2022/12/08 05:21:10;;;;;;;17.40;7.75;;;;;;;;;;7390826;19;20002;-72
2022/12/08 05:23:36;;;;;;;18.08;8.25;;;;;;;;;;7393874;19;20479;-72
2022/12/08 05:26:01;;;;;;;16.88;8.18;;;;;;;;;;7396103;19;20007;-71
2022/12/08 05:28:26;;;;;;;14.73;7.55;;;;;;;;;;7398827;19;20062;-72
2022/12/08 05:30:52;;;;;;;15.35;7.38;;;;;;;;;;7400594;19;20119;-71
2022/12/08 05:33:17;;;;;;;17.00;7.90;;;;;;;;;;7395165;19;19998;-70
2022/12/08 05:35:43;;;;;;;19.30;7.75;;;;;;;;;;7394987;19;20423;-71
2022/12/08 05:38:09;;;;;;;17.02;8.02;;;;;;;;;;7389008;19;20014;-71
2022/12/08 05:41:14;;;;;;;15.85;7.40;;;;;;;;;;7394134;19;20480;-71
2022/12/08 05:43:39;;;;;;;15.93;7.90;;;;;;;;;;7394317;19;19998;-71
2022/12/08 05:46:05;;;;;;;16.60;8.13;;;;;;;;;;7394007;19;20002;-71
2022/12/08 05:48:31;;;;;;;17.27;7.65;;;;;;;;;;7394976;19;20367;-71
2022/12/08 05:50:56;;;;;;;15.75;7.78;;;;;;;;;;7393273;19;19991;-71
2022/12/08 05:53:21;;;;;;;15.40;7.85;;;;;;;;;;7391205;19;20011;-71
2022/12/08 05:55:47;;;;;;;13.80;6.97;;;;;;;;;;7394380;19;19995;-71
2022/12/08 05:58:17;;;;;;;16.65;7.80;;;;;;;;;;7395765;19;19991;-72
2022/12/08 06:00:44;;;;;;;18.95;8.18;;;;;;;;;;7394585;19;20083;-70
2022/12/08 06:03:10;;;;;;;22.08;8.05;;;;;;;;;;7395192;19;19994;-71
2022/12/08 06:05:36;;;;;;;17.33;8.23;;;;;;;;;;7395391;19;19998;-71
2022/12/08 06:08:01;;;;;;;17.35;7.30;;;;;;;;;;7393052;19;20488;-71
2022/12/08 06:10:27;;;;;;;18.20;7.40;;;;;;;;;;7395303;19;19998;-71
2022/12/08 06:12:55;;;;;;;17.27;7.25;;;;;;;;;;7394611;19;20027;-72
2022/12/08 06:15:21;;;;;;;15.75;7.63;;;;;;;;;;7394879;19;20312;-72
2022/12/08 06:17:46;;;;;;;15.35;6.95;;;;;;;;;;7395510;19;19994;-72
2022/12/08 06:20:12;;;;;;;14.45;6.93;;;;;;;;;;7394485;19;20023;-72
2022/12/08 06:22:37;;;;;;;16.42;7.80;;;;;;;;;;7394227;19;20011;-72
2022/12/08 06:25:03;;;;;;;17.98;8.30;;;;;;;;;;7394751;19;19999;-71
2022/12/08 06:27:29;;;;;;;20.40;8.80;;;;;;;;;;7388311;19;19999;-71
2022/12/08 06:29:54;;;;;;;16.98;8.52;;;;;;;;;;7389999;19;19994;-71
2022/12/08 06:32:19;;;;;;;16.63;8.70;;;;;;;;;;7393722;19;20471;-71
2022/12/08 06:34:45;;;;;;;19.48;8.60;;;;;;;;;;7391756;19;20468;-71
2022/12/08 06:37:10;;;;;;;14.30;7.75;;;;;;;;;;7390315;19;20027;-72
2022/12/08 06:39:36;;;;;;;16.52;7.85;;;;;;;;;;7388902;19;20046;-71
2022/12/08 06:42:43;;;;;;;18.75;8.32;;;;;;;;;;7392042;19;20357;-71
2022/12/08 06:44:50;;;;;;;17.55;7.88;;;;;;;;;;7390446;19;20006;-71
2022/12/08 06:47:15;;;;;;;12.30;5.68;;;;;;;;;;7381220;19;19994;-72
2022/12/08 06:49:40;;;;;;;13.38;6.25;;;;;;;;;;7392427;19;20007;-71
2022/12/08 06:52:06;;;;;;;13.85;6.30;;;;;;;;;;7392854;19;19999;-72
2022/12/08 06:54:31;;;;;;;14.07;6.78;;;;;;;;;;7394792;19;20019;-72
2022/12/08 06:56:57;;;;;;;14.57;6.43;;;;;;;;;;7388470;19;20322;-72
2022/12/08 06:59:28;;;;;;;14.07;6.03;;;;;;;;;;7394444;19;20080;-71
2022/12/08 07:02:20;;;;;;;14.93;6.90;;;;;;;;;;7389690;19;19995;-72
2022/12/08 07:04:46;;;;;;;14.57;6.28;;;;;;;;;;7388788;19;19995;-71
2022/12/08 07:07:11;;;;;;;17.33;6.53;;;;;;;;;;7390389;19;20022;-72
2022/12/08 07:09:36;;;;;;;14.82;6.25;;;;;;;;;;7391509;19;20452;-71
2022/12/08 07:12:03;;;;;;;17.67;6.20;;;;;;;;;;7389985;19;20492;-71
2022/12/08 07:14:28;;;;;;;14.63;6.85;;;;;;;;;;7392344;19;20013;-71
2022/12/08 07:16:54;;;;;;;16.63;7.75;;;;;;;;;;7388199;19;19998;-72
2022/12/08 07:19:19;;;;;;;16.23;7.18;;;;;;;;;;7390816;19;20019;-72
2022/12/08 07:21:44;;;;;;;16.02;7.20;;;;;;;;;;7389619;19;20006;-72
2022/12/08 07:24:10;;;;;;;18.08;7.43;;;;;;;;;;7388684;19;20003;-72
2022/12/08 07:26:36;;;;;;;14.60;6.43;;;;;;;;;;7392663;19;19990;-72
2022/12/08 07:29:01;;;;;;;16.17;7.40;;;;;;;;;;7388536;19;19995;-72
2022/12/08 07:31:27;;;;;;;18.63;7.20;;;;;;;;;;7390690;19;19990;-72
2022/12/08 07:33:54;;;;;;;16.92;7.38;;;;;;;;;;7388979;19;19995;-72
2022/12/08 07:36:19;;;;;;;17.30;7.40;;;;;;;;;;7390930;19;20006;-72
2022/12/08 07:38:45;;;;;;;15.75;6.70;;;;;;;;;;7382757;19;20005;-72
2022/12/08 07:41:19;;;;;;;15.27;7.63;;;;;;;;;;7389084;19;20011;-71
2022/12/08 07:43:47;;;;;;;16.33;7.07;;;;;;;;;;7386343;19;20026;-72
2022/12/08 07:46:14;;;;;;;12.63;6.60;;;;;;;;;;7392146;19;20023;-72
2022/12/08 07:48:40;;;;;;;16.08;6.90;;;;;;;;;;7387752;19;20001;-72
2022/12/08 07:51:06;;;;;;;14.23;6.28;;;;;;;;;;7388977;19;20093;-71
2022/12/08 07:53:31;;;;;;;15.50;7.03;;;;;;;;;;7389122;19;20480;-71
2022/12/08 07:55:57;;;;;;;15.82;6.00;;;;;;;;;;7389443;19;20002;-71
2022/12/08 07:58:23;;;;;;;18.45;6.95;;;;;;;;;;7392374;19;20002;-72
2022/12/08 08:00:48;;;;;;;12.93;5.88;;;;;;;;;;7390367;19;20002;-72
2022/12/08 08:03:13;;;;;;;15.73;6.40;;;;;;;;;;7390205;19;20039;-72
2022/12/08 08:05:39;;;;;;;12.38;6.07;;;;;;;;;;7390958;19;20066;-72
2022/12/08 08:08:04;;;;;;;13.50;6.20;;;;;;;;;;7389000;19;20010;-73
2022/12/08 08:10:30;;;;;;;12.07;5.32;;;;;;;;;;7390909;19;20007;-72
2022/12/08 08:12:58;;;;;;;10.77;4.88;;;;;;;;;;7388761;19;20029;-73
2022/12/08 08:15:24;;;;;;;11.40;4.65;;;;;;;;;;7386443;19;20003;-72
2022/12/08 08:17:50;;;;;;;10.27;4.45;;;;;;;;;;7388776;19;20029;-72
2022/12/08 08:20:16;;;;;;;11.60;4.72;;;;;;;;;;7388581;19;20357;-71
2022/12/08 08:22:41;;;;;;;11.52;6.05;;;;;;;;;;7387989;19;20001;-72
2022/12/08 08:25:07;;;;;;;12.15;5.72;;;;;;;;;;7387833;19;20330;-72
2022/12/08 08:27:32;;;;;;;12.52;5.20;;;;;;;;;;7387531;19;19998;-73
2022/12/08 08:29:57;;;;;;;14.38;6.18;;;;;;;;;;7390819;19;20077;-72
2022/12/08 08:32:23;;;;;;;12.82;5.97;;;;;;;;;;7390523;19;20006;-72
2022/12/08 08:34:48;;;;;;;14.15;5.45;;;;;;;;;;7387615;19;19990;-72
2022/12/08 08:37:13;;;;;;;12.65;5.35;;;;;;;;;;7388600;19;20455;-73
2022/12/08 08:39:39;;;;;;;11.80;5.55;;;;;;;;;;7384876;19;20114;-72
2022/12/08 08:42:04;;;;;;;12.15;5.60;;;;;;;;;;7388958;19;20006;-73
2022/12/08 08:44:29;;;;;;;15.57;5.47;;;;;;;;;;7391135;19;20351;-72
2022/12/08 08:46:55;;;;;;;15.85;5.43;;;;;;;;;;7386745;19;20015;-70
2022/12/08 08:49:20;;;;;;;10.60;5.57;;;;;;;;;;7388306;19;19998;-73
2022/12/08 08:51:46;;;;;;;13.52;5.95;;;;;;;;;;7389766;19;19995;-72
2022/12/08 08:54:11;;;;;;;13.70;6.75;;;;;;;;;;7388912;19;20114;-73
2022/12/08 08:56:36;;;;;;;13.15;6.03;;;;;;;;;;7387008;19;20002;-72
2022/12/08 08:59:02;;;;;;;13.02;5.93;;;;;;;;;;7388464;19;20003;-71
2022/12/08 09:01:28;;;;;;;15.32;6.55;;;;;;;;;;7387872;19;19995;-71
2022/12/08 09:03:54;;;;;;;13.07;6.30;;;;;;;;;;7389807;19;20349;-71
2022/12/08 09:06:20;;;;;;;10.85;5.18;;;;;;;;;;7390450;19;20383;-71
2022/12/08 09:08:46;;;;;;;11.15;5.72;;;;;;;;;;7387235;19;19998;-72
2022/12/08 09:11:12;;;;;;;12.07;5.18;;;;;;;;;;7282041;19;20043;-71
2022/12/08 09:13:38;;;;;;;13.60;5.70;;;;;;;;;;7388540;19;20019;-71
2022/12/08 09:16:05;;;;;;;11.05;5.18;;;;;;;;;;7389984;19;20026;-72
2022/12/08 09:18:30;;;;;;;10.20;5.32;;;;;;;;;;7388789;19;20178;-72
2022/12/08 09:20:56;;;;;;;10.85;4.90;;;;;;;;;;7389349;19;20007;-72
2022/12/08 09:23:21;;;;;;;10.40;5.13;;;;;;;;;;7388195;19;19995;-71
2022/12/08 09:25:46;;;;;;;12.45;5.40;;;;;;;;;;7389612;19;20540;-72
2022/12/08 09:28:13;;;;;;;12.55;5.47;;;;;;;;;;7393294;19;20503;-72
2022/12/08 09:30:39;;;;;;;9.18;5.13;;;;;;;;;;7392866;19;20007;-73
2022/12/08 09:33:04;;;;;;;10.32;4.60;;;;;;;;;;7394102;19;20530;-73
2022/12/08 09:35:30;;;;;;;11.60;4.80;;;;;;;;;;7395893;19;20010;-72
2022/12/08 09:37:56;;;;;;;11.13;4.80;;;;;;;;;;7394244;19;19999;-73
2022/12/08 09:40:23;;;;;;;10.05;3.92;;;;;;;;;;7393839;19;20565;-72
2022/12/08 09:43:08;;;;;;;8.20;4.20;;;;;;;;;;7394445;19;20023;-73
2022/12/08 09:45:34;;;;;;;8.00;3.88;;;;;;;;;;7395137;19;20037;-72
2022/12/08 09:48:07;;;;;;;8.75;3.97;;;;;;;;;;7392892;19;19999;-72
2022/12/08 09:50:38;;;;;;;6.93;3.30;;;;;;;;;;7398102;19;20333;-72
2022/12/08 09:53:24;;;;;;;8.53;4.10;;;;;;;;;;7393088;19;19998;-72
2022/12/08 09:55:54;;;;;;;7.85;3.10;;;;;;;;;;7395673;19;19998;-72
2022/12/08 09:58:50;;;;;;;6.47;3.35;;;;;;;;;;7397031;19;20003;-73
2022/12/08 10:01:18;;;;;;;9.80;3.75;;;;;;;;;;7394295;19;19999;-71
2022/12/08 10:03:43;;;;;;;7.22;3.80;;;;;;;;;;7394862;19;20452;-71
2022/12/08 10:06:20;;;;;;;8.75;3.90;;;;;;;;;;7395430;19;20023;-71
2022/12/08 10:09:16;;;;;;;6.65;3.28;;;;;;;;;;7392875;19;19995;-73
2022/12/08 10:11:51;;;;;;;10.35;3.30;;;;;;;;;;7392885;19;20003;-73
2022/12/08 10:14:44;;;;;;;7.65;3.25;;;;;;;;;;7392198;19;20577;-71
2022/12/08 10:17:18;;;;;;;10.25;3.17;;;;;;;;;;7392201;19;20008;-71
2022/12/08 10:19:45;;;;;;;7.13;2.88;;;;;;;;;;7393426;19;20014;-72
2022/12/08 10:22:20;;;;;;;6.10;2.92;;;;;;;;;;7392256;19;20039;-72
2022/12/08 10:24:58;;;;;;;5.90;2.72;;;;;;;;;;7392556;19;19991;-73
2022/12/08 10:27:24;;;;;;;6.80;2.95;;;;;;;;;;7392539;19;20022;-72
2022/12/08 10:29:50;;;;;;;6.53;2.75;;;;;;;;;;7392276;19;20006;-73
2022/12/08 10:32:22;;;;;;;6.07;2.63;;;;;;;;;;7395606;19;20326;-73
2022/12/08 10:35:04;;;;;;;5.90;2.60;;;;;;;;;;7392056;19;19995;-73
2022/12/08 10:37:29;;;;;;;5.47;2.42;;;;;;;;;;7392071;19;20480;-72
2022/12/08 10:40:16;;;;;;;5.30;2.67;;;;;;;;;;7392215;19;20074;-72
2022/12/08 10:42:46;;;;;;;5.25;2.80;;;;;;;;;;7390573;19;20539;-72
2022/12/08 10:45:29;;;;;;;6.85;2.90;;;;;;;;;;7393978;19;20010;-72
2022/12/08 10:48:12;;;;;;;5.97;2.50;;;;;;;;;;7391972;19;20126;-73
2022/12/08 10:50:42;;;;;;;6.43;2.10;;;;;;;;;;7390885;19;20007;-72
2022/12/08 10:53:08;;;;;;;5.15;2.55;;;;;;;;;;7391552;19;20002;-71
2022/12/08 10:55:45;;;;;;;8.27;2.80;;;;;;;;;;7390562;19;20009;-72
2022/12/08 10:58:39;;;;;;;5.95;2.70;;;;;;;;;;7392174;19;20020;-73
2022/12/08 11:01:18;;;;;;;5.38;2.70;;;;;;;;;;7390474;19;20070;-71
2022/12/08 11:03:50;;;;;;;7.45;2.67;;;;;;;;;;7391125;19;20018;-72
2022/12/08 11:06:22;;;;;;;5.63;2.45;;;;;;;;;;7390502;19;20341;-72
2022/12/08 11:08:56;;;;;;;6.15;3.35;;;;;;;;;;7387716;19;20033;-72
2022/12/08 11:11:37;;;;;;;6.38;2.60;;;;;;;;;;7389388;19;20002;-72
2022/12/08 11:14:07;;;;;;;5.93;2.90;;;;;;;;;;7388270;19;20032;-72
2022/12/08 11:16:33;;;;;;;6.35;2.63;;;;;;;;;;7390766;19;20023;-72
2022/12/08 11:19:05;;;;;;;6.53;2.60;;;;;;;;;;7389964;19;19998;-72
2022/12/08 11:21:36;;;;;;;6.88;2.80;;;;;;;;;;7390270;19;19994;-71
2022/12/08 11:24:28;;;;;;;6.35;2.65;;;;;;;;;;7391725;19;20003;-72
2022/12/08 11:26:59;;;;;;;6.57;2.85;;;;;;;;;;7389150;19;20002;-72
2022/12/08 11:29:26;;;;;;;4.45;2.65;;;;;;;;;;7391221;19;20523;-73
2022/12/08 11:31:58;;;;;;;4.80;2.35;;;;;;;;;;7392037;19;20015;-71
2022/12/08 11:34:43;;;;;;;5.15;2.60;;;;;;;;;;7391821;19;20002;-71
2022/12/08 11:37:17;;;;;;;8.38;2.78;;;;;;;;;;7388630;19;20499;-72
2022/12/08 11:39:49;;;;;;;5.75;2.33;;;;;;;;;;7391430;19;20488;-70
2022/12/08 11:42:18;;;;;;;6.72;2.50;;;;;;;;;;7384590;19;20006;-70
2022/12/08 11:44:50;;;;;;;5.07;2.25;;;;;;;;;;7388513;19;19998;-71
2022/12/08 11:47:22;;;;;;;;;;;;;;;;;;7388194;19;20002;-72
2022/12/08 11:49:55;;;;;;;3.83;2.00;;;;;;;;;;7388988;19;19926;-75
2022/12/08 11:52:29;;;;;;;5.13;2.13;;;;;;;;;;7389575;19;19986;-72
2022/12/08 11:55:01;;;;;;;5.10;2.50;;;;;;;;;;7389694;19;20023;-73
2022/12/08 11:57:28;;;;;;;4.97;2.25;;;;;;;;;;7390028;19;19999;-73
2022/12/08 11:59:56;;;;;;;5.93;2.33;;;;;;;;;;7392580;19;19998;-74
2022/12/08 12:02:30;;;;;;;5.38;2.42;;;;;;;;;;7392597;19;20036;-72
2022/12/08 12:05:10;;;;;;;5.00;2.47;;;;;;;;;;7388137;19;20005;-73
2022/12/08 12:08:23;;;;;;;4.82;2.22;;;;;;;;;;7387933;19;19994;-72
2022/12/08 12:11:09;;;;;;;3.80;2.10;;;;;;;;;;7388801;19;20598;-72
2022/12/08 12:14:06;;;;;;;4.55;2.30;;;;;;;;;;7389942;19;20015;-73
2022/12/08 12:16:56;;;;;;;4.38;2.30;;;;;;;;;;7391537;19;19998;-72
2022/12/08 12:19:23;;;;;;;5.15;2.60;;;;;;;;;;7391763;19;19995;-72
2022/12/08 12:21:53;;;;;;;5.18;2.30;;;;;;;;;;7390789;19;19995;-73
2022/12/08 12:24:24;;;;;;;4.78;2.20;;;;;;;;;;7390840;19;20058;-72
2022/12/08 12:27:13;;;;;;;4.03;2.10;;;;;;;;;;7388417;19;20078;-73
2022/12/08 12:29:47;;;;;;;5.28;2.35;;;;;;;;;;7388782;19;20006;-72
2022/12/08 12:32:13;;;;;;;5.65;2.60;;;;;;;;;;7390311;19;20006;-72
2022/12/08 12:34:54;;;;;;;5.63;2.40;;;;;;;;;;7388466;19;20455;-73
2022/12/08 12:37:42;;;;;;;4.60;2.28;;;;;;;;;;7388645;19;20006;-73
2022/12/08 12:40:20;;;;;;;6.25;2.47;;;;;;;;;;7390422;19;20009;-73
2022/12/08 12:42:55;;;;;;;5.05;2.28;;;;;;;;;;7387966;19;19998;-73
2022/12/08 12:45:20;;;;;;;4.55;2.22;;;;;;;;;;7389283;19;20066;-73
2022/12/08 12:48:20;;;;;;;15.88;9.93;;;;;;;;;;7388411;19;20011;-71
2022/12/08 12:50:47;;;;;;;8.40;3.20;;;;;;;;;;7386892;19;20456;-72
2022/12/08 12:53:16;;;;;;;4.10;2.17;;;;;;;;;;7388892;19;20677;-73
2022/12/08 12:55:56;;;;;;;3.20;2.05;;;;;;;;;;7389362;19;20011;-72
2022/12/08 12:58:35;;;;;;;5.63;2.50;;;;;;;;;;7390611;19;20133;-72
2022/12/08 13:01:10;;;;;;;3.72;2.03;;;;;;;;;;7385909;19;20397;-72
2022/12/08 13:03:38;;;;;;;7.25;2.35;;;;;;;;;;7396805;19;20003;-72
2022/12/08 13:06:04;;;;;;;4.00;2.47;;;;;;;;;;7396830;19;19998;-72
2022/12/08 13:08:30;;;;;;;3.80;2.30;;;;;;;;;;7398173;19;20013;-71
2022/12/08 13:11:00;;;;;;;4.88;2.17;;;;;;;;;;7395010;19;19999;-72
2022/12/08 13:13:26;;;;;;;4.82;2.35;;;;;;;;;;7395741;19;20020;-72
2022/12/08 13:16:19;;;;;;;4.78;2.50;;;;;;;;;;7395911;19;20002;-73
2022/12/08 13:18:50;;;;;;;4.15;2.30;;;;;;;;;;7394393;19;20006;-72
2022/12/08 13:21:18;;;;;;;3.85;2.03;;;;;;;;;;7393817;19;20009;-72
2022/12/08 13:23:48;;;;;;;5.97;3.58;;;;;;;;;;7393869;19;19995;-72
2022/12/08 13:26:26;;;;;;;4.23;2.40;;;;;;;;;;7396561;19;20491;-72
2022/12/08 13:28:57;;;;;;;5.80;2.22;;;;;;;;;;7394452;19;20437;-73
2022/12/08 13:31:38;;;;;;;;;;;;;;;;;;7393906;19;19998;-72
2022/12/08 13:34:05;;;;;;;4.10;2.10;;;;;;;;;;7395511;19;19907;-72
2022/12/08 13:36:36;;;;;;;5.18;2.40;;;;;;;;;;7396077;19;19999;-72
2022/12/08 13:39:04;;;;;;;3.47;2.13;;;;;;;;;;7396351;19;20527;-73
2022/12/08 13:41:37;;;;;;;6.78;2.33;;;;;;;;;;7392285;19;20010;-72
2022/12/08 13:44:14;;;;;;;6.15;2.28;;;;;;;;;;7391217;19;20058;-72
2022/12/08 13:46:48;;;;;;;6.75;2.60;;;;;;;;;;7392680;19;20009;-72
2022/12/08 13:49:21;;;;;;;6.50;2.55;;;;;;;;;;7394569;19;20006;-73
2022/12/08 13:51:48;;;;;;;3.40;2.15;;;;;;;;;;7394054;19;20006;-72
2022/12/08 13:54:25;;;;;;;6.45;3.03;;;;;;;;;;7396043;19;20009;-72
2022/12/08 13:56:51;;;;;;;5.80;2.75;;;;;;;;;;7390631;19;20069;-73
2022/12/08 13:59:19;;;;;;;5.15;2.70;;;;;;;;;;7394551;19;19994;-72
2022/12/08 14:01:47;;;;;;;4.25;2.22;;;;;;;;;;7393321;19;20022;-72
2022/12/08 14:04:19;;;;;;;7.72;2.50;;;;;;;;;;7395867;19;20006;-72
2022/12/08 14:06:47;;;;;;;8.90;2.60;;;;;;;;;;7392120;19;20448;-72
2022/12/08 14:09:21;;;;;;;6.03;2.72;;;;;;;;;;7391901;19;20007;-73
2022/12/08 14:11:51;;;;;;;5.68;2.45;;;;;;;;;;7395996;19;20010;-73
2022/12/08 14:14:20;;;;;;;4.28;2.40;;;;;;;;;;7390796;19;20124;-72
2022/12/08 14:16:59;;;;;;;8.13;3.20;;;;;;;;;;7392817;19;20002;-74
2022/12/08 14:19:27;;;;;;;3.90;2.50;;;;;;;;;;7394175;19;20008;-74
2022/12/08 14:21:58;;;;;;;3.97;2.30;;;;;;;;;;7391152;19;20590;-72
2022/12/08 14:24:25;;;;;;;;;;;;;;;;;;7395757;19;20002;-72
2022/12/08 14:26:52;;;;;;;5.15;2.40;;;;;;;;;;7391786;19;19935;-72
2022/12/08 14:29:51;;;;;;;3.92;2.08;;;;;;;;;;7394173;19;20003;-72
2022/12/08 14:32:26;;;;;;;6.03;2.38;;;;;;;;;;7393922;19;20006;-72
2022/12/08 14:35:07;;;;;;;5.60;2.60;;;;;;;;;;7391877;19;20363;-72
2022/12/08 14:37:34;;;;;;;;;;;;;;;;;;7392975;19;20397;-72
2022/12/08 14:40:11;;;;;;;3.35;2.00;;;;;;;;;;7394628;19;19947;-73
2022/12/08 14:42:51;;;;;;;4.80;2.40;;;;;;;;;;7394595;19;20037;-73
2022/12/08 14:45:17;;;;;;;4.68;2.22;;;;;;;;;;7393807;19;19999;-72
2022/12/08 14:47:44;;;;;;;6.82;2.63;;;;;;;;;;7390550;19;20086;-73
2022/12/08 14:50:39;;;;;;;4.05;2.33;;;;;;;;;;7394612;19;20377;-72
2022/12/08 14:53:16;;;;;;;5.55;2.60;;;;;;;;;;7392468;19;20374;-73
2022/12/08 14:55:43;;;;;;;4.65;2.47;;;;;;;;;;7393952;19;20062;-72
2022/12/08 14:58:17;;;;;;;4.40;2.35;;;;;;;;;;7392769;19;20014;-73
2022/12/08 15:00:53;;;;;;;5.78;2.50;;;;;;;;;;7389543;19;19999;-72
2022/12/08 15:03:20;;;;;;;3.35;2.20;;;;;;;;;;7390832;19;20002;-73